Clifty, Kentucky
Current Conditions -  °F | °C
As of 6:55 AM on Saturday 25 Oct 2014 (Local Time) from K2I0 Reporting Station
Overcast Overcast  
Wind Chill: 58°   Ceiling: 4100
Heat Index: 58°   Visibility: 10mi
Dew Point: 55°   Wind: 8mph
Humidity: 91%   Direction: 210°SSW
Pressure: 30.03"   Gusts: NA
Location:  37°N, 87.15°W
Report Text: K2I0 251155Z AUTO 21007KT 10SM BKN041 OVC049 15/13 A3003 RMK AO2 T01450130 10145 20105
Loading
Personal Weather Stations






























Interactive Weather Map
Tropical Storm Tracking
New forecast layout! Learn more

10-Day Weather Forecast

Advertisements
Track Severe Weather on mobile